sensor_id;sensor_type;location;lat;lon;timestamp;P1;durP1;ratioP1;P2;durP2;ratioP2
36185;SDS011;22228;53.222;7.446;2023-01-24T00:02:03;30.37;;;23.47;;
36185;SDS011;22228;53.222;7.446;2023-01-24T00:07:12;33.70;;;24.03;;
36185;SDS011;22228;53.222;7.446;2023-01-24T00:09:34;27.07;;;21.20;;
36185;SDS011;22228;53.222;7.446;2023-01-24T00:11:56;27.40;;;21.13;;
36185;SDS011;22228;53.222;7.446;2023-01-24T00:14:43;32.17;;;22.03;;
36185;SDS011;22228;53.222;7.446;2023-01-24T00:17:05;29.50;;;21.63;;
36185;SDS011;22228;53.222;7.446;2023-01-24T00:19:30;31.60;;;22.97;;
36185;SDS011;22228;53.222;7.446;2023-01-24T00:21:51;31.73;;;24.10;;
36185;SDS011;22228;53.222;7.446;2023-01-24T00:24:38;30.87;;;24.80;;
36185;SDS011;22228;53.222;7.446;2023-01-24T00:27:02;29.73;;;21.77;;
36185;SDS011;22228;53.222;7.446;2023-01-24T00:29:26;29.73;;;22.57;;
36185;SDS011;22228;53.222;7.446;2023-01-24T00:31:46;29.43;;;21.97;;
36185;SDS011;22228;53.222;7.446;2023-01-24T00:34:08;30.87;;;22.33;;
36185;SDS011;22228;53.222;7.446;2023-01-24T00:39:21;30.23;;;21.93;;
36185;SDS011;22228;53.222;7.446;2023-01-24T00:42:07;31.13;;;23.13;;
36185;SDS011;22228;53.222;7.446;2023-01-24T00:44:30;30.83;;;21.87;;
36185;SDS011;22228;53.222;7.446;2023-01-24T00:46:58;34.93;;;23.77;;
36185;SDS011;22228;53.222;7.446;2023-01-24T00:49:25;28.43;;;21.20;;
36185;SDS011;22228;53.222;7.446;2023-01-24T00:51:47;31.27;;;21.97;;
36185;SDS011;22228;53.222;7.446;2023-01-24T00:54:12;29.93;;;22.43;;
36185;SDS011;22228;53.222;7.446;2023-01-24T00:56:33;29.80;;;21.73;;
36185;SDS011;22228;53.222;7.446;2023-01-24T00:58:57;29.93;;;22.37;;
36185;SDS011;22228;53.222;7.446;2023-01-24T01:01:20;32.40;;;23.10;;
36185;SDS011;22228;53.222;7.446;2023-01-24T01:06:54;33.57;;;22.83;;
36185;SDS011;22228;53.222;7.446;2023-01-24T01:09:14;32.87;;;23.67;;
36185;SDS011;22228;53.222;7.446;2023-01-24T01:11:36;30.97;;;22.07;;
36185;SDS011;22228;53.222;7.446;2023-01-24T04:04:39;22.13;;;15.97;;
36185;SDS011;22228;53.222;7.446;2023-01-24T04:07:52;22.10;;;16.83;;
36185;SDS011;22228;53.222;7.446;2023-01-24T04:10:14;20.53;;;17.33;;
36185;SDS011;22228;53.222;7.446;2023-01-24T04:12:40;21.30;;;16.20;;
36185;SDS011;22228;53.222;7.446;2023-01-24T04:15:32;21.23;;;16.87;;
36185;SDS011;22228;53.222;7.446;2023-01-24T04:18:14;18.53;;;16.07;;
36185;SDS011;22228;53.222;7.446;2023-01-24T04:20:36;19.73;;;15.83;;
36185;SDS011;22228;53.222;7.446;2023-01-24T04:23:08;17.77;;;15.57;;
36185;SDS011;22228;53.222;7.446;2023-01-24T04:25:33;16.63;;;13.73;;
36185;SDS011;22228;53.222;7.446;2023-01-24T04:27:55;16.60;;;14.73;;
36185;SDS011;22228;53.222;7.446;2023-01-24T04:30:22;16.53;;;13.90;;
36185;SDS011;22228;53.222;7.446;2023-01-24T04:32:47;17.07;;;13.63;;
36185;SDS011;22228;53.222;7.446;2023-01-24T04:35:18;16.97;;;13.77;;
36185;SDS011;22228;53.222;7.446;2023-01-24T04:37:48;20.30;;;15.47;;
36185;SDS011;22228;53.222;7.446;2023-01-24T04:40:25;19.03;;;15.07;;
36185;SDS011;22228;53.222;7.446;2023-01-24T04:42:51;16.13;;;14.00;;
36185;SDS011;22228;53.222;7.446;2023-01-24T04:45:14;19.33;;;14.97;;
36185;SDS011;22228;53.222;7.446;2023-01-24T04:47:36;20.73;;;15.63;;
36185;SDS011;22228;53.222;7.446;2023-01-24T04:52:47;21.20;;;16.37;;
36185;SDS011;22228;53.222;7.446;2023-01-24T04:55:34;21.10;;;16.37;;
36185;SDS011;22228;53.222;7.446;2023-01-24T04:58:20;15.90;;;13.47;;
36185;SDS011;22228;53.222;7.446;2023-01-24T05:00:42;15.93;;;13.03;;
36185;SDS011;22228;53.222;7.446;2023-01-24T05:03:05;15.57;;;13.50;;
36185;SDS011;22228;53.222;7.446;2023-01-24T05:05:28;15.57;;;12.67;;
36185;SDS011;22228;53.222;7.446;2023-01-24T05:07:49;14.07;;;11.57;;
36185;SDS011;22228;53.222;7.446;2023-01-24T05:10:12;14.03;;;11.20;;
36185;SDS011;22228;53.222;7.446;2023-01-24T05:12:33;13.20;;;11.10;;
36185;SDS011;22228;53.222;7.446;2023-01-24T05:15:01;11.87;;;10.63;;
36185;SDS011;22228;53.222;7.446;2023-01-24T05:17:25;11.30;;;10.10;;
36185;SDS011;22228;53.222;7.446;2023-01-24T05:19:54;12.27;;;10.87;;
36185;SDS011;22228;53.222;7.446;2023-01-24T05:22:16;12.60;;;10.87;;
36185;SDS011;22228;53.222;7.446;2023-01-24T05:24:44;12.67;;;11.33;;
36185;SDS011;22228;53.222;7.446;2023-01-24T05:27:08;12.83;;;11.20;;
36185;SDS011;22228;53.222;7.446;2023-01-24T05:29:55;13.47;;;11.40;;
36185;SDS011;22228;53.222;7.446;2023-01-24T05:32:47;13.23;;;11.00;;
36185;SDS011;22228;53.222;7.446;2023-01-24T05:35:33;12.07;;;10.77;;
36185;SDS011;22228;53.222;7.446;2023-01-24T05:37:57;12.07;;;10.77;;
36185;SDS011;22228;53.222;7.446;2023-01-24T05:40:22;14.50;;;11.30;;
36185;SDS011;22228;53.222;7.446;2023-01-24T05:42:43;12.80;;;11.10;;
36185;SDS011;22228;53.222;7.446;2023-01-24T05:47:54;14.13;;;10.87;;
36185;SDS011;22228;53.222;7.446;2023-01-24T05:50:19;13.77;;;11.60;;
36185;SDS011;22228;53.222;7.446;2023-01-24T05:55:59;15.03;;;11.93;;
36185;SDS011;22228;53.222;7.446;2023-01-24T05:58:22;12.83;;;11.47;;
36185;SDS011;22228;53.222;7.446;2023-01-24T06:01:09;13.13;;;10.80;;
36185;SDS011;22228;53.222;7.446;2023-01-24T06:03:42;11.70;;;10.50;;
36185;SDS011;22228;53.222;7.446;2023-01-24T06:06:30;12.40;;;11.07;;
36185;SDS011;22228;53.222;7.446;2023-01-24T06:08:53;14.77;;;11.93;;
36185;SDS011;22228;53.222;7.446;2023-01-24T06:11:19;14.77;;;11.80;;
36185;SDS011;22228;53.222;7.446;2023-01-24T06:14:19;12.80;;;11.30;;
36185;SDS011;22228;53.222;7.446;2023-01-24T06:16:47;14.10;;;11.97;;
36185;SDS011;22228;53.222;7.446;2023-01-24T06:19:15;13.87;;;11.70;;
36185;SDS011;22228;53.222;7.446;2023-01-24T06:21:41;15.03;;;12.20;;
36185;SDS011;22228;53.222;7.446;2023-01-24T06:27:21;13.63;;;12.17;;
36185;SDS011;22228;53.222;7.446;2023-01-24T06:29:45;12.47;;;11.10;;
36185;SDS011;22228;53.222;7.446;2023-01-24T06:32:10;14.53;;;11.90;;
36185;SDS011;22228;53.222;7.446;2023-01-24T06:34:50;13.00;;;11.03;;
36185;SDS011;22228;53.222;7.446;2023-01-24T06:37:29;13.00;;;11.17;;
36185;SDS011;22228;53.222;7.446;2023-01-24T06:43:23;13.27;;;11.50;;
36185;SDS011;22228;53.222;7.446;2023-01-24T06:45:48;12.67;;;10.53;;
36185;SDS011;22228;53.222;7.446;2023-01-24T06:48:10;13.30;;;11.03;;
36185;SDS011;22228;53.222;7.446;2023-01-24T06:50:42;13.10;;;11.07;;
36185;SDS011;22228;53.222;7.446;2023-01-24T06:53:06;12.33;;;10.83;;
36185;SDS011;22228;53.222;7.446;2023-01-24T06:55:35;15.27;;;11.77;;
36185;SDS011;22228;53.222;7.446;2023-01-24T06:58:03;12.53;;;11.27;;
36185;SDS011;22228;53.222;7.446;2023-01-24T07:00:26;12.90;;;11.60;;
36185;SDS011;22228;53.222;7.446;2023-01-24T07:03:34;14.50;;;11.17;;
36185;SDS011;22228;53.222;7.446;2023-01-24T07:05:55;14.17;;;12.20;;
36185;SDS011;22228;53.222;7.446;2023-01-24T07:08:17;14.60;;;12.20;;
36185;SDS011;22228;53.222;7.446;2023-01-24T07:13:31;14.17;;;11.43;;
36185;SDS011;22228;53.222;7.446;2023-01-24T07:16:17;13.83;;;11.13;;
36185;SDS011;22228;53.222;7.446;2023-01-24T07:18:40;13.87;;;11.60;;
36185;SDS011;22228;53.222;7.446;2023-01-24T07:21:08;13.57;;;11.90;;
36185;SDS011;22228;53.222;7.446;2023-01-24T07:23:30;12.40;;;11.10;;
36185;SDS011;22228;53.222;7.446;2023-01-24T07:26:16;12.83;;;11.40;;
36185;SDS011;22228;53.222;7.446;2023-01-24T07:28:38;13.10;;;11.47;;
36185;SDS011;22228;53.222;7.446;2023-01-24T07:31:04;11.70;;;10.43;;
36185;SDS011;22228;53.222;7.446;2023-01-24T07:33:34;14.67;;;12.07;;
36185;SDS011;22228;53.222;7.446;2023-01-24T07:35:56;14.33;;;12.50;;
36185;SDS011;22228;53.222;7.446;2023-01-24T07:38:16;16.10;;;12.23;;
36185;SDS011;22228;53.222;7.446;2023-01-24T07:40:38;14.07;;;11.83;;
36185;SDS011;22228;53.222;7.446;2023-01-24T07:43:25;12.70;;;11.33;;
36185;SDS011;22228;53.222;7.446;2023-01-24T07:45:50;15.43;;;12.63;;
36185;SDS011;22228;53.222;7.446;2023-01-24T07:48:14;15.53;;;12.53;;
36185;SDS011;22228;53.222;7.446;2023-01-24T07:50:37;15.37;;;13.53;;
36185;SDS011;22228;53.222;7.446;2023-01-24T07:53:05;15.23;;;13.17;;
36185;SDS011;22228;53.222;7.446;2023-01-24T07:55:26;16.90;;;14.53;;
36185;SDS011;22228;53.222;7.446;2023-01-24T07:57:48;16.93;;;14.53;;
36185;SDS011;22228;53.222;7.446;2023-01-24T08:00:18;21.03;;;15.93;;
36185;SDS011;22228;53.222;7.446;2023-01-24T08:02:39;18.00;;;14.67;;
36185;SDS011;22228;53.222;7.446;2023-01-24T08:05:02;18.00;;;15.57;;
36185;SDS011;22228;53.222;7.446;2023-01-24T08:10:19;17.87;;;15.30;;
36185;SDS011;22228;53.222;7.446;2023-01-24T08:12:50;17.03;;;15.33;;
36185;SDS011;22228;53.222;7.446;2023-01-24T08:15:12;19.03;;;14.90;;
36185;SDS011;22228;53.222;7.446;2023-01-24T08:17:34;18.57;;;15.83;;
36185;SDS011;22228;53.222;7.446;2023-01-24T08:20:03;17.50;;;15.47;;
36185;SDS011;22228;53.222;7.446;2023-01-24T08:25:39;16.57;;;14.80;;
36185;SDS011;22228;53.222;7.446;2023-01-24T08:28:07;18.17;;;15.50;;
36185;SDS011;22228;53.222;7.446;2023-01-24T08:30:29;17.13;;;15.17;;
36185;SDS011;22228;53.222;7.446;2023-01-24T08:32:57;18.40;;;16.40;;
36185;SDS011;22228;53.222;7.446;2023-01-24T08:35:19;16.97;;;15.17;;
36185;SDS011;22228;53.222;7.446;2023-01-24T08:40:58;22.93;;;18.63;;
36185;SDS011;22228;53.222;7.446;2023-01-24T08:43:22;23.20;;;19.40;;
36185;SDS011;22228;53.222;7.446;2023-01-24T08:45:43;23.97;;;20.70;;
36185;SDS011;22228;53.222;7.446;2023-01-24T08:48:06;25.43;;;20.53;;
36185;SDS011;22228;53.222;7.446;2023-01-24T08:50:29;24.77;;;20.90;;
36185;SDS011;22228;53.222;7.446;2023-01-24T08:52:53;29.17;;;23.43;;
36185;SDS011;22228;53.222;7.446;2023-01-24T08:55:28;26.00;;;21.63;;
36185;SDS011;22228;53.222;7.446;2023-01-24T08:58:00;27.37;;;23.33;;
36185;SDS011;22228;53.222;7.446;2023-01-24T09:00:22;28.90;;;22.90;;
36185;SDS011;22228;53.222;7.446;2023-01-24T09:02:50;29.83;;;24.27;;
36185;SDS011;22228;53.222;7.446;2023-01-24T09:05:34;29.13;;;22.97;;
36185;SDS011;22228;53.222;7.446;2023-01-24T09:07:58;31.50;;;24.13;;
36185;SDS011;22228;53.222;7.446;2023-01-24T09:10:20;29.67;;;23.03;;
36185;SDS011;22228;53.222;7.446;2023-01-24T09:13:07;31.17;;;24.03;;
36185;SDS011;22228;53.222;7.446;2023-01-24T09:15:52;28.37;;;23.33;;
36185;SDS011;22228;53.222;7.446;2023-01-24T09:18:14;28.93;;;24.30;;
36185;SDS011;22228;53.222;7.446;2023-01-24T09:21:00;28.70;;;24.03;;
36185;SDS011;22228;53.222;7.446;2023-01-24T09:23:22;31.67;;;24.83;;
36185;SDS011;22228;53.222;7.446;2023-01-24T09:25:48;28.77;;;24.07;;
36185;SDS011;22228;53.222;7.446;2023-01-24T09:28:12;28.83;;;23.57;;
36185;SDS011;22228;53.222;7.446;2023-01-24T09:30:33;29.00;;;23.33;;
36185;SDS011;22228;53.222;7.446;2023-01-24T09:33:02;27.23;;;22.60;;
36185;SDS011;22228;53.222;7.446;2023-01-24T09:35:52;27.50;;;22.70;;
36185;SDS011;22228;53.222;7.446;2023-01-24T09:38:18;27.07;;;21.60;;
36185;SDS011;22228;53.222;7.446;2023-01-24T09:40:41;22.10;;;19.03;;
36185;SDS011;22228;53.222;7.446;2023-01-24T09:43:04;23.27;;;19.37;;
36185;SDS011;22228;53.222;7.446;2023-01-24T09:46:01;26.27;;;20.33;;
36185;SDS011;22228;53.222;7.446;2023-01-24T09:48:29;22.50;;;19.07;;
36185;SDS011;22228;53.222;7.446;2023-01-24T09:50:54;26.97;;;21.37;;
36185;SDS011;22228;53.222;7.446;2023-01-24T09:53:20;22.93;;;18.73;;
36185;SDS011;22228;53.222;7.446;2023-01-24T09:55:49;23.13;;;19.47;;
36185;SDS011;22228;53.222;7.446;2023-01-24T09:58:16;23.97;;;20.57;;
36185;SDS011;22228;53.222;7.446;2023-01-24T10:00:48;27.27;;;20.70;;
36185;SDS011;22228;53.222;7.446;2023-01-24T10:06:26;24.87;;;20.63;;
36185;SDS011;22228;53.222;7.446;2023-01-24T10:08:49;25.53;;;21.03;;
36185;SDS011;22228;53.222;7.446;2023-01-24T10:11:44;24.80;;;19.47;;
36185;SDS011;22228;53.222;7.446;2023-01-24T10:14:29;92.50;;;65.93;;
36185;SDS011;22228;53.222;7.446;2023-01-24T10:17:17;24.10;;;20.83;;
36185;SDS011;22228;53.222;7.446;2023-01-24T10:19:54;23.80;;;20.60;;
36185;SDS011;22228;53.222;7.446;2023-01-24T10:22:34;24.50;;;20.70;;
36185;SDS011;22228;53.222;7.446;2023-01-24T10:25:11;25.50;;;21.17;;
36185;SDS011;22228;53.222;7.446;2023-01-24T10:27:35;24.60;;;20.27;;
36185;SDS011;22228;53.222;7.446;2023-01-24T10:30:05;25.30;;;21.00;;
36185;SDS011;22228;53.222;7.446;2023-01-24T10:33:10;25.63;;;20.73;;
36185;SDS011;22228;53.222;7.446;2023-01-24T10:35:36;25.10;;;19.97;;
36185;SDS011;22228;53.222;7.446;2023-01-24T10:38:23;22.87;;;18.80;;
36185;SDS011;22228;53.222;7.446;2023-01-24T10:40:50;31.10;;;20.43;;
36185;SDS011;22228;53.222;7.446;2023-01-24T10:43:12;23.93;;;20.07;;
36185;SDS011;22228;53.222;7.446;2023-01-24T10:45:40;25.87;;;19.03;;
36185;SDS011;22228;53.222;7.446;2023-01-24T10:48:21;27.67;;;21.03;;
36185;SDS011;22228;53.222;7.446;2023-01-24T10:50:55;24.67;;;20.17;;
36185;SDS011;22228;53.222;7.446;2023-01-24T10:53:31;26.43;;;20.00;;
36185;SDS011;22228;53.222;7.446;2023-01-24T10:55:56;26.87;;;20.93;;
36185;SDS011;22228;53.222;7.446;2023-01-24T10:58:56;22.27;;;17.97;;
36185;SDS011;22228;53.222;7.446;2023-01-24T11:01:19;25.97;;;19.87;;
36185;SDS011;22228;53.222;7.446;2023-01-24T11:03:41;27.33;;;19.90;;
36185;SDS011;22228;53.222;7.446;2023-01-24T11:06:01;26.20;;;20.13;;
36185;SDS011;22228;53.222;7.446;2023-01-24T11:08:23;21.63;;;18.93;;
36185;SDS011;22228;53.222;7.446;2023-01-24T11:10:47;27.80;;;19.97;;
36185;SDS011;22228;53.222;7.446;2023-01-24T11:13:21;23.33;;;19.70;;
36185;SDS011;22228;53.222;7.446;2023-01-24T11:15:50;24.37;;;19.77;;
36185;SDS011;22228;53.222;7.446;2023-01-24T11:18:16;23.63;;;19.73;;
36185;SDS011;22228;53.222;7.446;2023-01-24T11:20:40;24.13;;;19.60;;
36185;SDS011;22228;53.222;7.446;2023-01-24T11:23:05;26.10;;;19.80;;
36185;SDS011;22228;53.222;7.446;2023-01-24T11:28:50;20.67;;;17.43;;
36185;SDS011;22228;53.222;7.446;2023-01-24T11:31:17;22.13;;;18.83;;
36185;SDS011;22228;53.222;7.446;2023-01-24T11:33:52;27.97;;;18.43;;
36185;SDS011;22228;53.222;7.446;2023-01-24T11:36:34;27.27;;;18.37;;
36185;SDS011;22228;53.222;7.446;2023-01-24T11:39:02;28.17;;;18.10;;
36185;SDS011;22228;53.222;7.446;2023-01-24T11:41:39;19.30;;;17.27;;
36185;SDS011;22228;53.222;7.446;2023-01-24T11:44:15;22.90;;;18.83;;
36185;SDS011;22228;53.222;7.446;2023-01-24T11:46:51;22.10;;;17.80;;
36185;SDS011;22228;53.222;7.446;2023-01-24T11:52:45;22.67;;;18.20;;
36185;SDS011;22228;53.222;7.446;2023-01-24T11:55:13;19.87;;;17.47;;
36185;SDS011;22228;53.222;7.446;2023-01-24T11:57:44;24.03;;;18.70;;
36185;SDS011;22228;53.222;7.446;2023-01-24T12:00:18;22.00;;;18.80;;
36185;SDS011;22228;53.222;7.446;2023-01-24T12:02:55;21.23;;;17.60;;
36185;SDS011;22228;53.222;7.446;2023-01-24T12:05:36;21.50;;;17.43;;
36185;SDS011;22228;53.222;7.446;2023-01-24T12:08:12;21.73;;;17.77;;
36185;SDS011;22228;53.222;7.446;2023-01-24T12:10:51;24.70;;;18.50;;
36185;SDS011;22228;53.222;7.446;2023-01-24T12:13:27;21.37;;;18.10;;
36185;SDS011;22228;53.222;7.446;2023-01-24T12:15:58;22.87;;;18.83;;
36185;SDS011;22228;53.222;7.446;2023-01-24T12:18:53;21.57;;;18.40;;
36185;SDS011;22228;53.222;7.446;2023-01-24T12:21:36;21.50;;;18.07;;
36185;SDS011;22228;53.222;7.446;2023-01-24T12:24:48;20.80;;;17.27;;
36185;SDS011;22228;53.222;7.446;2023-01-24T12:27:16;25.17;;;19.63;;
36185;SDS011;22228;53.222;7.446;2023-01-24T12:29:41;21.87;;;18.90;;
36185;SDS011;22228;53.222;7.446;2023-01-24T12:32:09;22.67;;;19.10;;
36185;SDS011;22228;53.222;7.446;2023-01-24T12:34:49;21.43;;;18.10;;
36185;SDS011;22228;53.222;7.446;2023-01-24T12:37:15;23.00;;;19.00;;
36185;SDS011;22228;53.222;7.446;2023-01-24T12:40:15;23.30;;;18.93;;
36185;SDS011;22228;53.222;7.446;2023-01-24T12:42:46;23.67;;;20.13;;
36185;SDS011;22228;53.222;7.446;2023-01-24T12:48:05;21.33;;;17.57;;
36185;SDS011;22228;53.222;7.446;2023-01-24T12:50:34;21.93;;;18.37;;
36185;SDS011;22228;53.222;7.446;2023-01-24T12:53:27;21.80;;;18.07;;
36185;SDS011;22228;53.222;7.446;2023-01-24T12:55:56;23.00;;;18.70;;
36185;SDS011;22228;53.222;7.446;2023-01-24T12:58:23;22.53;;;19.07;;
36185;SDS011;22228;53.222;7.446;2023-01-24T13:00:53;22.83;;;18.13;;
36185;SDS011;22228;53.222;7.446;2023-01-24T13:03:44;24.17;;;19.43;;
36185;SDS011;22228;53.222;7.446;2023-01-24T13:06:16;20.73;;;18.50;;
36185;SDS011;22228;53.222;7.446;2023-01-24T13:08:48;22.87;;;18.73;;
36185;SDS011;22228;53.222;7.446;2023-01-24T13:11:16;22.37;;;19.13;;
36185;SDS011;22228;53.222;7.446;2023-01-24T13:13:39;25.40;;;19.03;;
36185;SDS011;22228;53.222;7.446;2023-01-24T13:16:44;21.63;;;18.10;;
36185;SDS011;22228;53.222;7.446;2023-01-24T13:19:46;23.20;;;18.40;;
36185;SDS011;22228;53.222;7.446;2023-01-24T13:22:52;26.20;;;20.53;;
36185;SDS011;22228;53.222;7.446;2023-01-24T13:26:05;22.80;;;18.90;;
36185;SDS011;22228;53.222;7.446;2023-01-24T13:28:51;21.33;;;18.03;;
36185;SDS011;22228;53.222;7.446;2023-01-24T13:31:22;23.03;;;18.73;;
36185;SDS011;22228;53.222;7.446;2023-01-24T13:34:20;22.27;;;19.17;;
36185;SDS011;22228;53.222;7.446;2023-01-24T13:37:15;21.87;;;17.83;;
36185;SDS011;22228;53.222;7.446;2023-01-24T13:39:38;22.53;;;18.40;;
36185;SDS011;22228;53.222;7.446;2023-01-24T13:42:05;20.43;;;17.40;;
36185;SDS011;22228;53.222;7.446;2023-01-24T13:44:38;20.43;;;17.57;;
36185;SDS011;22228;53.222;7.446;2023-01-24T13:47:00;22.00;;;17.50;;
36185;SDS011;22228;53.222;7.446;2023-01-24T13:49:31;20.37;;;16.40;;
36185;SDS011;22228;53.222;7.446;2023-01-24T13:51:59;22.37;;;17.83;;
36185;SDS011;22228;53.222;7.446;2023-01-24T13:54:36;22.30;;;18.63;;
36185;SDS011;22228;53.222;7.446;2023-01-24T13:57:11;24.03;;;19.23;;
36185;SDS011;22228;53.222;7.446;2023-01-24T13:59:40;22.40;;;17.50;;
36185;SDS011;22228;53.222;7.446;2023-01-24T14:02:02;20.30;;;16.97;;
36185;SDS011;22228;53.222;7.446;2023-01-24T14:04:43;23.57;;;18.57;;
36185;SDS011;22228;53.222;7.446;2023-01-24T14:07:36;20.57;;;17.20;;
36185;SDS011;22228;53.222;7.446;2023-01-24T14:10:08;25.20;;;18.93;;
36185;SDS011;22228;53.222;7.446;2023-01-24T14:12:29;23.20;;;18.60;;
36185;SDS011;22228;53.222;7.446;2023-01-24T14:14:59;22.50;;;18.90;;
36185;SDS011;22228;53.222;7.446;2023-01-24T14:17:27;20.50;;;17.13;;
36185;SDS011;22228;53.222;7.446;2023-01-24T14:20:14;21.90;;;16.77;;
36185;SDS011;22228;53.222;7.446;2023-01-24T14:22:42;20.97;;;17.20;;
36185;SDS011;22228;53.222;7.446;2023-01-24T14:28:28;18.87;;;15.93;;
36185;SDS011;22228;53.222;7.446;2023-01-24T14:30:54;19.10;;;16.70;;
36185;SDS011;22228;53.222;7.446;2023-01-24T14:36:58;21.33;;;16.50;;
36185;SDS011;22228;53.222;7.446;2023-01-24T14:39:30;21.60;;;17.47;;
36185;SDS011;22228;53.222;7.446;2023-01-24T14:44:41;20.60;;;16.60;;
36185;SDS011;22228;53.222;7.446;2023-01-24T14:47:16;20.50;;;16.80;;
36185;SDS011;22228;53.222;7.446;2023-01-24T14:52:38;21.37;;;16.33;;
36185;SDS011;22228;53.222;7.446;2023-01-24T14:55:00;20.40;;;16.20;;
36185;SDS011;22228;53.222;7.446;2023-01-24T14:57:38;18.17;;;15.17;;
36185;SDS011;22228;53.222;7.446;2023-01-24T15:00:00;18.17;;;15.20;;
36185;SDS011;22228;53.222;7.446;2023-01-24T15:02:26;19.13;;;15.63;;
36185;SDS011;22228;53.222;7.446;2023-01-24T15:04:48;20.97;;;15.50;;
36185;SDS011;22228;53.222;7.446;2023-01-24T15:07:15;21.07;;;16.07;;
36185;SDS011;22228;53.222;7.446;2023-01-24T15:10:10;15.67;;;14.00;;
36185;SDS011;22228;53.222;7.446;2023-01-24T15:12:57;18.23;;;15.37;;
36185;SDS011;22228;53.222;7.446;2023-01-24T15:15:21;19.20;;;14.73;;
36185;SDS011;22228;53.222;7.446;2023-01-24T15:17:43;18.60;;;15.13;;
36185;SDS011;22228;53.222;7.446;2023-01-24T15:20:07;18.43;;;15.13;;
36185;SDS011;22228;53.222;7.446;2023-01-24T15:22:37;18.93;;;15.43;;
36185;SDS011;22228;53.222;7.446;2023-01-24T15:25:01;15.90;;;14.03;;
36185;SDS011;22228;53.222;7.446;2023-01-24T15:27:23;18.70;;;14.13;;
36185;SDS011;22228;53.222;7.446;2023-01-24T15:30:06;16.47;;;13.90;;
36185;SDS011;22228;53.222;7.446;2023-01-24T15:32:38;14.77;;;12.83;;
36185;SDS011;22228;53.222;7.446;2023-01-24T15:35:13;16.53;;;11.67;;
36185;SDS011;22228;53.222;7.446;2023-01-24T15:40:46;12.83;;;11.43;;
36185;SDS011;22228;53.222;7.446;2023-01-24T15:43:15;14.97;;;12.57;;
36185;SDS011;22228;53.222;7.446;2023-01-24T15:49:15;14.57;;;12.63;;
36185;SDS011;22228;53.222;7.446;2023-01-24T15:51:57;13.23;;;11.13;;
36185;SDS011;22228;53.222;7.446;2023-01-24T15:54:43;16.90;;;12.77;;
36185;SDS011;22228;53.222;7.446;2023-01-24T15:57:08;17.83;;;12.43;;
36185;SDS011;22228;53.222;7.446;2023-01-24T15:59:37;14.30;;;12.13;;
36185;SDS011;22228;53.222;7.446;2023-01-24T16:02:07;13.10;;;11.53;;
36185;SDS011;22228;53.222;7.446;2023-01-24T16:04:32;15.93;;;12.70;;
36185;SDS011;22228;53.222;7.446;2023-01-24T16:06:54;15.93;;;12.77;;
36185;SDS011;22228;53.222;7.446;2023-01-24T16:09:15;14.87;;;12.53;;
36185;SDS011;22228;53.222;7.446;2023-01-24T16:11:43;14.53;;;12.17;;
36185;SDS011;22228;53.222;7.446;2023-01-24T16:14:10;16.13;;;13.27;;
36185;SDS011;22228;53.222;7.446;2023-01-24T16:16:35;14.37;;;12.70;;
36185;SDS011;22228;53.222;7.446;2023-01-24T16:18:58;15.10;;;12.10;;
36185;SDS011;22228;53.222;7.446;2023-01-24T16:21:22;14.97;;;12.97;;
36185;SDS011;22228;53.222;7.446;2023-01-24T16:23:43;16.77;;;13.73;;
36185;SDS011;22228;53.222;7.446;2023-01-24T16:26:09;16.73;;;14.37;;
36185;SDS011;22228;53.222;7.446;2023-01-24T16:28:38;16.80;;;14.77;;
36185;SDS011;22228;53.222;7.446;2023-01-24T16:31:06;22.03;;;18.30;;
36185;SDS011;22228;53.222;7.446;2023-01-24T16:33:27;22.13;;;18.53;;
36185;SDS011;22228;53.222;7.446;2023-01-24T16:35:55;18.83;;;16.03;;
36185;SDS011;22228;53.222;7.446;2023-01-24T16:38:17;16.77;;;14.23;;
36185;SDS011;22228;53.222;7.446;2023-01-24T16:40:40;15.93;;;13.90;;
36185;SDS011;22228;53.222;7.446;2023-01-24T16:43:01;15.80;;;14.13;;
36185;SDS011;22228;53.222;7.446;2023-01-24T16:45:25;16.87;;;14.77;;
36185;SDS011;22228;53.222;7.446;2023-01-24T16:48:20;20.17;;;17.13;;
36185;SDS011;22228;53.222;7.446;2023-01-24T16:51:09;18.53;;;16.40;;
36185;SDS011;22228;53.222;7.446;2023-01-24T16:56:16;24.00;;;20.07;;
36185;SDS011;22228;53.222;7.446;2023-01-24T16:58:39;26.00;;;21.63;;
36185;SDS011;22228;53.222;7.446;2023-01-24T17:01:00;24.70;;;20.70;;
36185;SDS011;22228;53.222;7.446;2023-01-24T17:03:21;24.73;;;21.47;;
36185;SDS011;22228;53.222;7.446;2023-01-24T17:05:41;26.13;;;20.83;;
36185;SDS011;22228;53.222;7.446;2023-01-24T17:08:10;25.90;;;21.83;;
36185;SDS011;22228;53.222;7.446;2023-01-24T17:10:31;29.40;;;24.07;;
36185;SDS011;22228;53.222;7.446;2023-01-24T17:12:53;28.50;;;23.57;;
36185;SDS011;22228;53.222;7.446;2023-01-24T17:15:15;28.50;;;22.90;;
36185;SDS011;22228;53.222;7.446;2023-01-24T17:17:37;29.70;;;23.33;;
36185;SDS011;22228;53.222;7.446;2023-01-24T17:19:58;26.47;;;22.53;;
36185;SDS011;22228;53.222;7.446;2023-01-24T17:22:18;26.53;;;22.30;;
36185;SDS011;22228;53.222;7.446;2023-01-24T17:24:41;28.23;;;23.93;;
36185;SDS011;22228;53.222;7.446;2023-01-24T17:27:01;25.53;;;22.20;;
36185;SDS011;22228;53.222;7.446;2023-01-24T17:29:26;28.57;;;23.30;;
36185;SDS011;22228;53.222;7.446;2023-01-24T17:31:47;28.13;;;22.60;;
36185;SDS011;22228;53.222;7.446;2023-01-24T17:34:08;25.73;;;22.13;;
36185;SDS011;22228;53.222;7.446;2023-01-24T17:36:28;24.87;;;21.60;;
36185;SDS011;22228;53.222;7.446;2023-01-24T17:41:43;26.20;;;21.90;;
36185;SDS011;22228;53.222;7.446;2023-01-24T17:44:30;26.37;;;22.33;;
36185;SDS011;22228;53.222;7.446;2023-01-24T17:46:52;29.20;;;23.00;;
36185;SDS011;22228;53.222;7.446;2023-01-24T17:49:17;25.87;;;21.83;;
36185;SDS011;22228;53.222;7.446;2023-01-24T17:51:37;27.07;;;21.63;;
36185;SDS011;22228;53.222;7.446;2023-01-24T17:54:01;26.07;;;21.67;;
36185;SDS011;22228;53.222;7.446;2023-01-24T17:59:44;25.70;;;21.47;;
36185;SDS011;22228;53.222;7.446;2023-01-24T18:02:05;27.07;;;22.20;;
36185;SDS011;22228;53.222;7.446;2023-01-24T18:04:26;28.60;;;24.07;;
36185;SDS011;22228;53.222;7.446;2023-01-24T18:06:49;34.40;;;26.63;;
36185;SDS011;22228;53.222;7.446;2023-01-24T18:09:11;28.43;;;23.63;;
36185;SDS011;22228;53.222;7.446;2023-01-24T18:11:32;31.70;;;24.93;;
36185;SDS011;22228;53.222;7.446;2023-01-24T18:13:54;28.97;;;23.27;;
36185;SDS011;22228;53.222;7.446;2023-01-24T18:16:17;28.20;;;23.37;;
36185;SDS011;22228;53.222;7.446;2023-01-24T18:18:39;28.57;;;24.07;;
36185;SDS011;22228;53.222;7.446;2023-01-24T18:21:06;30.07;;;23.97;;
36185;SDS011;22228;53.222;7.446;2023-01-24T18:23:33;26.40;;;22.40;;
36185;SDS011;22228;53.222;7.446;2023-01-24T18:25:59;27.77;;;21.50;;
36185;SDS011;22228;53.222;7.446;2023-01-24T18:28:24;24.50;;;19.87;;
36185;SDS011;22228;53.222;7.446;2023-01-24T18:30:45;25.97;;;19.83;;
36185;SDS011;22228;53.222;7.446;2023-01-24T18:33:08;22.87;;;19.00;;
36185;SDS011;22228;53.222;7.446;2023-01-24T18:35:29;22.23;;;19.30;;
36185;SDS011;22228;53.222;7.446;2023-01-24T18:37:50;21.77;;;18.70;;
36185;SDS011;22228;53.222;7.446;2023-01-24T18:40:15;21.53;;;18.40;;
36185;SDS011;22228;53.222;7.446;2023-01-24T18:42:36;23.23;;;20.10;;
36185;SDS011;22228;53.222;7.446;2023-01-24T18:44:58;22.40;;;18.57;;